sensor_id;sensor_type;location;lat;lon;timestamp;pressure;altitude;pressure_sealevel;temperature;humidity
71735;BME280;59577;52.122;5.406;2022-09-12T00:01:10;101873.31;;;14.25;79.37
71735;BME280;59577;52.122;5.406;2022-09-12T00:03:43;101875.16;;;14.21;79.24
71735;BME280;59577;52.122;5.406;2022-09-12T00:06:18;101868.03;;;14.17;79.10
71735;BME280;59577;52.122;5.406;2022-09-12T00:08:48;101868.47;;;14.03;79.55
71735;BME280;59577;52.122;5.406;2022-09-12T00:11:15;101867.59;;;13.99;80.01
71735;BME280;59577;52.122;5.406;2022-09-12T00:13:42;101862.06;;;13.95;80.17
71735;BME280;59577;52.122;5.406;2022-09-12T00:16:20;101859.94;;;13.88;80.06
71735;BME280;59577;52.122;5.406;2022-09-12T00:18:47;101858.69;;;13.86;80.20
71735;BME280;59577;52.122;5.406;2022-09-12T00:21:16;101859.06;;;13.84;80.38
71735;BME280;59577;52.122;5.406;2022-09-12T00:23:43;101855.28;;;13.89;80.03
71735;BME280;59577;52.122;5.406;2022-09-12T00:26:10;101851.19;;;13.95;80.42
71735;BME280;59577;52.122;5.406;2022-09-12T00:28:38;101845.28;;;13.93;79.84
71735;BME280;59577;52.122;5.406;2022-09-12T00:31:07;101846.00;;;13.90;80.05
71735;BME280;59577;52.122;5.406;2022-09-12T00:33:34;101843.00;;;13.95;79.84
71735;BME280;59577;52.122;5.406;2022-09-12T00:36:07;101833.25;;;13.94;79.13
71735;BME280;59577;52.122;5.406;2022-09-12T00:38:35;101838.25;;;13.92;78.97
71735;BME280;59577;52.122;5.406;2022-09-12T00:41:05;101845.22;;;13.89;79.28
71735;BME280;59577;52.122;5.406;2022-09-12T00:43:38;101834.19;;;13.70;79.52
71735;BME280;59577;52.122;5.406;2022-09-12T00:46:22;101833.75;;;13.68;79.75
71735;BME280;59577;52.122;5.406;2022-09-12T00:49:06;101840.31;;;13.67;79.63
71735;BME280;59577;52.122;5.406;2022-09-12T00:52:12;101834.94;;;13.54;79.86
71735;BME280;59577;52.122;5.406;2022-09-12T00:54:56;101836.78;;;13.50;80.07
71735;BME280;59577;52.122;5.406;2022-09-12T00:57:31;101836.94;;;13.42;79.98
71735;BME280;59577;52.122;5.406;2022-09-12T01:00:05;101831.84;;;13.40;80.71
71735;BME280;59577;52.122;5.406;2022-09-12T01:02:35;101831.59;;;13.45;80.83
71735;BME280;59577;52.122;5.406;2022-09-12T01:05:02;101839.66;;;13.42;80.68
71735;BME280;59577;52.122;5.406;2022-09-12T01:07:29;101831.97;;;13.31;80.50
71735;BME280;59577;52.122;5.406;2022-09-12T01:09:55;101832.84;;;13.35;80.66
71735;BME280;59577;52.122;5.406;2022-09-12T01:12:22;101833.09;;;13.43;80.38
71735;BME280;59577;52.122;5.406;2022-09-12T01:14:49;101837.72;;;13.42;80.01
71735;BME280;59577;52.122;5.406;2022-09-12T01:17:15;101827.50;;;13.39;80.59
71735;BME280;59577;52.122;5.406;2022-09-12T01:25:35;101817.44;;;13.40;80.18
71735;BME280;59577;52.122;5.406;2022-09-12T01:28:31;101825.72;;;13.31;79.77
71735;BME280;59577;52.122;5.406;2022-09-12T01:31:14;101819.19;;;13.20;80.10
71735;BME280;59577;52.122;5.406;2022-09-12T01:36:35;101816.59;;;13.11;80.70
71735;BME280;59577;52.122;5.406;2022-09-12T01:39:19;101820.56;;;13.13;80.67
71735;BME280;59577;52.122;5.406;2022-09-12T01:42:06;101814.34;;;13.13;80.73
71735;BME280;59577;52.122;5.406;2022-09-12T01:47:06;101803.06;;;12.98;80.94
71735;BME280;59577;52.122;5.406;2022-09-12T01:52:22;101802.38;;;13.02;80.41
71735;BME280;59577;52.122;5.406;2022-09-12T01:58:13;101794.72;;;12.91;80.57
71735;BME280;59577;52.122;5.406;2022-09-12T02:00:19;101795.94;;;12.94;80.71
71735;BME280;59577;52.122;5.406;2022-09-12T02:02:50;101787.88;;;12.97;80.58
71735;BME280;59577;52.122;5.406;2022-09-12T02:05:26;101783.69;;;13.00;80.60
71735;BME280;59577;52.122;5.406;2022-09-12T02:08:16;101778.59;;;12.98;79.97
71735;BME280;59577;52.122;5.406;2022-09-12T02:10:54;101777.25;;;12.92;80.29
71735;BME280;59577;52.122;5.406;2022-09-12T02:13:26;101772.19;;;12.91;80.37
71735;BME280;59577;52.122;5.406;2022-09-12T02:15:59;101770.25;;;12.91;80.48
71735;BME280;59577;52.122;5.406;2022-09-12T02:18:30;101778.75;;;12.90;79.95
71735;BME280;59577;52.122;5.406;2022-09-12T02:21:00;101781.34;;;12.86;79.92
71735;BME280;59577;52.122;5.406;2022-09-12T02:23:30;101772.78;;;12.72;79.94
71735;BME280;59577;52.122;5.406;2022-09-12T02:26:05;101768.03;;;12.69;80.60
71735;BME280;59577;52.122;5.406;2022-09-12T02:28:42;101762.72;;;12.72;80.75
71735;BME280;59577;52.122;5.406;2022-09-12T02:31:39;101761.56;;;12.73;80.69
71735;BME280;59577;52.122;5.406;2022-09-12T02:34:13;101765.00;;;12.70;80.68
71735;BME280;59577;52.122;5.406;2022-09-12T02:39:28;101769.06;;;12.64;80.79
71735;BME280;59577;52.122;5.406;2022-09-12T02:41:57;101767.13;;;12.65;81.05
71735;BME280;59577;52.122;5.406;2022-09-12T02:44:25;101759.78;;;12.65;80.65
71735;BME280;59577;52.122;5.406;2022-09-12T02:46:57;101753.91;;;12.63;80.78
71735;BME280;59577;52.122;5.406;2022-09-12T02:49:24;101747.66;;;12.63;81.05
71735;BME280;59577;52.122;5.406;2022-09-12T02:51:51;101750.16;;;12.68;80.71
71735;BME280;59577;52.122;5.406;2022-09-12T02:54:18;101753.31;;;12.70;80.66
71735;BME280;59577;52.122;5.406;2022-09-12T02:56:45;101750.16;;;12.68;80.38
71735;BME280;59577;52.122;5.406;2022-09-12T02:59:15;101749.94;;;12.60;80.28
71735;BME280;59577;52.122;5.406;2022-09-12T03:05:08;101739.22;;;12.39;80.88
71735;BME280;59577;52.122;5.406;2022-09-12T03:13:19;101730.97;;;12.36;81.20
71735;BME280;59577;52.122;5.406;2022-09-12T03:24:20;101739.34;;;12.31;80.70
71735;BME280;59577;52.122;5.406;2022-09-12T03:26:54;101734.16;;;12.26;81.06
71735;BME280;59577;52.122;5.406;2022-09-12T03:29:24;101742.63;;;12.24;81.27
71735;BME280;59577;52.122;5.406;2022-09-12T03:31:54;101736.53;;;12.27;81.61
71735;BME280;59577;52.122;5.406;2022-09-12T03:34:22;101727.72;;;12.30;81.30
71735;BME280;59577;52.122;5.406;2022-09-12T03:36:50;101738.91;;;12.29;81.47
71735;BME280;59577;52.122;5.406;2022-09-12T03:39:17;101734.72;;;12.31;81.24
71735;BME280;59577;52.122;5.406;2022-09-12T03:41:43;101729.63;;;12.30;81.05
71735;BME280;59577;52.122;5.406;2022-09-12T03:44:09;101732.09;;;12.35;80.96
71735;BME280;59577;52.122;5.406;2022-09-12T03:46:36;101731.56;;;12.29;80.74
71735;BME280;59577;52.122;5.406;2022-09-12T03:49:02;101726.25;;;12.20;80.86
71735;BME280;59577;52.122;5.406;2022-09-12T03:51:29;101731.00;;;12.23;81.08
71735;BME280;59577;52.122;5.406;2022-09-12T03:53:56;101728.84;;;12.17;80.96
71735;BME280;59577;52.122;5.406;2022-09-12T03:56:22;101721.84;;;12.16;81.17
71735;BME280;59577;52.122;5.406;2022-09-12T03:58:49;101713.69;;;12.16;81.40
71735;BME280;59577;52.122;5.406;2022-09-12T04:01:17;101714.59;;;12.20;81.41
71735;BME280;59577;52.122;5.406;2022-09-12T04:03:47;101710.75;;;12.21;81.27
71735;BME280;59577;52.122;5.406;2022-09-12T04:06:15;101706.00;;;12.18;81.41
71735;BME280;59577;52.122;5.406;2022-09-12T04:08:43;101706.00;;;12.18;81.06
71735;BME280;59577;52.122;5.406;2022-09-12T04:11:11;101701.59;;;12.13;81.19
71735;BME280;59577;52.122;5.406;2022-09-12T04:13:40;101700.13;;;12.16;81.16
71735;BME280;59577;52.122;5.406;2022-09-12T04:16:07;101708.72;;;12.18;81.10
71735;BME280;59577;52.122;5.406;2022-09-12T04:18:34;101713.69;;;12.16;81.25
71735;BME280;59577;52.122;5.406;2022-09-12T04:21:06;101714.25;;;12.09;81.20
71735;BME280;59577;52.122;5.406;2022-09-12T04:23:33;101715.41;;;12.08;81.31
71735;BME280;59577;52.122;5.406;2022-09-12T04:26:01;101712.25;;;12.06;81.37
71735;BME280;59577;52.122;5.406;2022-09-12T04:28:28;101718.34;;;12.03;81.76
71735;BME280;59577;52.122;5.406;2022-09-12T04:30:55;101711.53;;;12.09;81.82
71735;BME280;59577;52.122;5.406;2022-09-12T04:33:26;101709.75;;;12.13;82.07
71735;BME280;59577;52.122;5.406;2022-09-12T04:35:52;101717.06;;;12.13;81.40
71735;BME280;59577;52.122;5.406;2022-09-12T04:38:19;101706.59;;;12.11;81.85
71735;BME280;59577;52.122;5.406;2022-09-12T04:40:45;101706.44;;;12.08;81.65
71735;BME280;59577;52.122;5.406;2022-09-12T04:43:12;101707.25;;;12.08;82.15
71735;BME280;59577;52.122;5.406;2022-09-12T04:45:40;101713.13;;;12.10;81.73
71735;BME280;59577;52.122;5.406;2022-09-12T04:48:06;101706.69;;;12.02;81.89
71735;BME280;59577;52.122;5.406;2022-09-12T04:50:33;101709.28;;;11.99;82.08
71735;BME280;59577;52.122;5.406;2022-09-12T04:53:02;101712.09;;;12.02;82.32
71735;BME280;59577;52.122;5.406;2022-09-12T04:55:29;101713.03;;;12.07;82.29
71735;BME280;59577;52.122;5.406;2022-09-12T04:57:55;101705.34;;;12.09;82.44
71735;BME280;59577;52.122;5.406;2022-09-12T05:00:21;101701.38;;;12.06;82.69
71735;BME280;59577;52.122;5.406;2022-09-12T05:02:49;101708.16;;;12.12;82.43
71735;BME280;59577;52.122;5.406;2022-09-12T05:05:15;101706.34;;;12.16;82.43
71735;BME280;59577;52.122;5.406;2022-09-12T05:07:42;101702.59;;;12.21;82.38
71735;BME280;59577;52.122;5.406;2022-09-12T05:10:09;101700.44;;;12.27;82.36
71735;BME280;59577;52.122;5.406;2022-09-12T05:12:35;101703.84;;;12.36;82.23
71735;BME280;59577;52.122;5.406;2022-09-12T05:15:02;101698.50;;;12.39;81.95
71735;BME280;59577;52.122;5.406;2022-09-12T05:17:29;101699.72;;;12.42;81.75
71735;BME280;59577;52.122;5.406;2022-09-12T05:19:56;101716.50;;;12.44;81.96
71735;BME280;59577;52.122;5.406;2022-09-12T05:22:22;101707.09;;;12.41;81.68
71735;BME280;59577;52.122;5.406;2022-09-12T05:24:49;101708.22;;;12.40;81.82
71735;BME280;59577;52.122;5.406;2022-09-12T05:27:16;101709.03;;;12.41;81.82
71735;BME280;59577;52.122;5.406;2022-09-12T05:29:42;101711.84;;;12.45;81.95
71735;BME280;59577;52.122;5.406;2022-09-12T05:32:09;101715.00;;;12.47;81.87
71735;BME280;59577;52.122;5.406;2022-09-12T05:34:35;101704.72;;;12.40;82.10
71735;BME280;59577;52.122;5.406;2022-09-12T05:37:03;101689.59;;;12.39;82.49
71735;BME280;59577;52.122;5.406;2022-09-12T05:39:29;101692.50;;;12.46;82.24
71735;BME280;59577;52.122;5.406;2022-09-12T05:41:56;101697.69;;;12.51;82.12
71735;BME280;59577;52.122;5.406;2022-09-12T05:44:22;101694.97;;;12.51;82.29
71735;BME280;59577;52.122;5.406;2022-09-12T05:46:48;101700.06;;;12.53;82.27
71735;BME280;59577;52.122;5.406;2022-09-12T05:49:16;101699.84;;;12.58;82.43
71735;BME280;59577;52.122;5.406;2022-09-12T05:51:44;101691.44;;;12.63;82.51
71735;BME280;59577;52.122;5.406;2022-09-12T05:54:13;101695.72;;;12.64;82.46
71735;BME280;59577;52.122;5.406;2022-09-12T05:56:42;101693.53;;;12.70;81.89
71735;BME280;59577;52.122;5.406;2022-09-12T06:01:38;101701.34;;;12.71;81.82
71735;BME280;59577;52.122;5.406;2022-09-12T06:04:05;101695.81;;;12.68;81.70
71735;BME280;59577;52.122;5.406;2022-09-12T06:06:35;101687.56;;;12.64;82.16
71735;BME280;59577;52.122;5.406;2022-09-12T06:09:04;101696.50;;;12.65;82.13
71735;BME280;59577;52.122;5.406;2022-09-12T06:11:32;101701.25;;;12.68;82.17
71735;BME280;59577;52.122;5.406;2022-09-12T06:13:59;101699.44;;;12.72;81.91
71735;BME280;59577;52.122;5.406;2022-09-12T06:16:28;101692.78;;;12.69;81.77
71735;BME280;59577;52.122;5.406;2022-09-12T06:18:58;101698.75;;;12.75;81.63
71735;BME280;59577;52.122;5.406;2022-09-12T06:21:25;101701.69;;;12.82;81.79
71735;BME280;59577;52.122;5.406;2022-09-12T06:23:53;101709.94;;;12.86;81.75
71735;BME280;59577;52.122;5.406;2022-09-12T06:26:21;101708.00;;;12.86;81.68
71735;BME280;59577;52.122;5.406;2022-09-12T06:28:49;101705.38;;;12.90;81.68
71735;BME280;59577;52.122;5.406;2022-09-12T06:31:17;101698.09;;;12.94;82.02
71735;BME280;59577;52.122;5.406;2022-09-12T06:33:48;101704.19;;;13.03;82.05
71735;BME280;59577;52.122;5.406;2022-09-12T06:36:20;101712.38;;;13.19;81.26
71735;BME280;59577;52.122;5.406;2022-09-12T06:38:52;101703.16;;;13.36;81.37
71735;BME280;59577;52.122;5.406;2022-09-12T06:41:19;101703.75;;;13.61;81.13
71735;BME280;59577;52.122;5.406;2022-09-12T06:43:46;101695.25;;;13.79;80.22
71735;BME280;59577;52.122;5.406;2022-09-12T06:46:12;101691.13;;;13.85;80.02
71735;BME280;59577;52.122;5.406;2022-09-12T06:48:39;101695.13;;;13.91;80.22
71735;BME280;59577;52.122;5.406;2022-09-12T06:51:12;101686.69;;;13.96;79.95
71735;BME280;59577;52.122;5.406;2022-09-12T06:53:40;101688.03;;;14.02;80.04
71735;BME280;59577;52.122;5.406;2022-09-12T06:56:13;101686.94;;;14.23;80.31
71735;BME280;59577;52.122;5.406;2022-09-12T06:58:41;101685.38;;;14.41;80.66
71735;BME280;59577;52.122;5.406;2022-09-12T07:03:36;101673.28;;;20.84;67.73
71735;BME280;59577;52.122;5.406;2022-09-12T07:06:08;101674.09;;;23.37;58.37
71735;BME280;59577;52.122;5.406;2022-09-12T07:08:37;101671.00;;;24.95;52.74
71735;BME280;59577;52.122;5.406;2022-09-12T07:11:10;101679.28;;;26.36;49.30
71735;BME280;59577;52.122;5.406;2022-09-12T07:13:42;101673.66;;;27.16;47.05
71735;BME280;59577;52.122;5.406;2022-09-12T07:16:11;101670.94;;;28.08;43.63
71735;BME280;59577;52.122;5.406;2022-09-12T07:18:57;101660.97;;;28.92;41.92
71735;BME280;59577;52.122;5.406;2022-09-12T07:21:25;101664.69;;;28.89;40.83
71735;BME280;59577;52.122;5.406;2022-09-12T07:23:51;101677.03;;;28.79;40.46
71735;BME280;59577;52.122;5.406;2022-09-12T07:26:20;101675.00;;;27.37;42.82
71735;BME280;59577;52.122;5.406;2022-09-12T07:28:50;101674.50;;;26.36;44.91
71735;BME280;59577;52.122;5.406;2022-09-12T07:31:21;101673.41;;;27.36;44.13
71735;BME280;59577;52.122;5.406;2022-09-12T07:33:48;101664.63;;;29.20;40.47
71735;BME280;59577;52.122;5.406;2022-09-12T07:36:22;101669.44;;;30.22;38.44
71735;BME280;59577;52.122;5.406;2022-09-12T07:38:53;101669.72;;;30.24;38.38
71735;BME280;59577;52.122;5.406;2022-09-12T07:41:25;101666.00;;;30.27;37.62
71735;BME280;59577;52.122;5.406;2022-09-12T07:43:56;101668.31;;;30.71;37.53
71735;BME280;59577;52.122;5.406;2022-09-12T07:46:24;101670.63;;;30.30;37.44
71735;BME280;59577;52.122;5.406;2022-09-12T07:48:53;101662.31;;;30.02;37.54
71735;BME280;59577;52.122;5.406;2022-09-12T07:51:21;101663.69;;;30.68;37.10
71735;BME280;59577;52.122;5.406;2022-09-12T07:53:48;101659.06;;;30.98;35.49
71735;BME280;59577;52.122;5.406;2022-09-12T07:56:15;101663.28;;;30.84;36.73
71735;BME280;59577;52.122;5.406;2022-09-12T07:58:42;101671.75;;;30.14;37.66
71735;BME280;59577;52.122;5.406;2022-09-12T08:01:17;101662.97;;;29.78;38.97
71735;BME280;59577;52.122;5.406;2022-09-12T08:03:49;101665.81;;;30.40;39.07
71735;BME280;59577;52.122;5.406;2022-09-12T08:06:20;101665.22;;;31.02;37.38
71735;BME280;59577;52.122;5.406;2022-09-12T08:08:50;101667.03;;;30.81;37.07
71735;BME280;59577;52.122;5.406;2022-09-12T08:11:22;101663.88;;;30.88;36.71
71735;BME280;59577;52.122;5.406;2022-09-12T08:13:49;101664.63;;;31.46;36.01
71735;BME280;59577;52.122;5.406;2022-09-12T08:16:23;101666.50;;;31.64;36.43
71735;BME280;59577;52.122;5.406;2022-09-12T08:18:50;101662.59;;;31.47;35.98
71735;BME280;59577;52.122;5.406;2022-09-12T08:21:19;101663.69;;;31.01;35.71
71735;BME280;59577;52.122;5.406;2022-09-12T08:23:50;101672.84;;;31.02;36.60
71735;BME280;59577;52.122;5.406;2022-09-12T08:26:19;101669.94;;;30.96;37.15
71735;BME280;59577;52.122;5.406;2022-09-12T08:28:46;101670.00;;;31.11;35.34
71735;BME280;59577;52.122;5.406;2022-09-12T08:31:18;101665.63;;;30.86;36.17
71735;BME280;59577;52.122;5.406;2022-09-12T08:33:55;101667.16;;;30.87;37.50
71735;BME280;59577;52.122;5.406;2022-09-12T08:36:25;101675.91;;;30.80;38.26
71735;BME280;59577;52.122;5.406;2022-09-12T08:39:04;101666.50;;;31.01;38.08
71735;BME280;59577;52.122;5.406;2022-09-12T08:41:47;101670.66;;;31.06;38.14
71735;BME280;59577;52.122;5.406;2022-09-12T08:47:18;101669.38;;;30.83;38.43
71735;BME280;59577;52.122;5.406;2022-09-12T08:52:46;101671.59;;;29.16;40.43
71735;BME280;59577;52.122;5.406;2022-09-12T08:55:33;101666.84;;;29.72;39.94
71735;BME280;59577;52.122;5.406;2022-09-12T08:58:08;101666.84;;;29.81;38.35
71735;BME280;59577;52.122;5.406;2022-09-12T09:00:45;101657.09;;;29.76;40.17
71735;BME280;59577;52.122;5.406;2022-09-12T09:03:31;101653.06;;;29.77;39.77
71735;BME280;59577;52.122;5.406;2022-09-12T09:09:04;101652.72;;;29.94;40.03
71735;BME280;59577;52.122;5.406;2022-09-12T09:11:50;101645.53;;;30.21;39.64
71735;BME280;59577;52.122;5.406;2022-09-12T09:17:36;101633.81;;;29.89;39.43
71735;BME280;59577;52.122;5.406;2022-09-12T09:20:21;101638.00;;;29.84;39.10
71735;BME280;59577;52.122;5.406;2022-09-12T09:22:52;101636.13;;;29.25;39.95
71735;BME280;59577;52.122;5.406;2022-09-12T09:25:25;101630.41;;;29.20;39.51
71735;BME280;59577;52.122;5.406;2022-09-12T09:28:00;101637.38;;;29.61;40.56
71735;BME280;59577;52.122;5.406;2022-09-12T09:30:29;101622.97;;;29.63;40.06
71735;BME280;59577;52.122;5.406;2022-09-12T09:32:59;101620.47;;;29.19;39.60
71735;BME280;59577;52.122;5.406;2022-09-12T09:35:42;101630.19;;;28.96;41.29
71735;BME280;59577;52.122;5.406;2022-09-12T09:38:49;101626.69;;;29.23;42.54
71735;BME280;59577;52.122;5.406;2022-09-12T09:43:58;101631.31;;;29.72;40.83
71735;BME280;59577;52.122;5.406;2022-09-12T09:46:26;101631.47;;;29.69;40.26
71735;BME280;59577;52.122;5.406;2022-09-12T09:48:53;101637.69;;;29.54;40.80
71735;BME280;59577;52.122;5.406;2022-09-12T09:51:32;101628.22;;;29.79;41.93
71735;BME280;59577;52.122;5.406;2022-09-12T09:54:02;101626.53;;;29.82;39.29
71735;BME280;59577;52.122;5.406;2022-09-12T09:56:36;101619.41;;;29.44;39.88
71735;BME280;59577;52.122;5.406;2022-09-12T09:59:14;101619.41;;;29.25;40.10
71735;BME280;59577;52.122;5.406;2022-09-12T10:01:53;101614.59;;;29.44;40.85
71735;BME280;59577;52.122;5.406;2022-09-12T10:04:23;101609.97;;;29.23;40.03
71735;BME280;59577;52.122;5.406;2022-09-12T10:06:51;101613.53;;;28.64;40.54
71735;BME280;59577;52.122;5.406;2022-09-12T10:09:21;101613.22;;;28.62;40.85
71735;BME280;59577;52.122;5.406;2022-09-12T10:11:49;101610.81;;;28.83;40.31
71735;BME280;59577;52.122;5.406;2022-09-12T10:14:30;101607.72;;;29.08;40.97
71735;BME280;59577;52.122;5.406;2022-09-12T10:16:57;101602.97;;;29.28;40.21
71735;BME280;59577;52.122;5.406;2022-09-12T10:19:38;101597.09;;;29.16;41.48
71735;BME280;59577;52.122;5.406;2022-09-12T10:22:15;101590.38;;;28.95;41.32
71735;BME280;59577;52.122;5.406;2022-09-12T10:24:48;101589.53;;;27.95;41.86
71735;BME280;59577;52.122;5.406;2022-09-12T10:27:18;101586.06;;;27.12;43.75
71735;BME280;59577;52.122;5.406;2022-09-12T10:32:34;101582.69;;;26.69;47.12
71735;BME280;59577;52.122;5.406;2022-09-12T10:35:23;101579.25;;;26.39;46.46
71735;BME280;59577;52.122;5.406;2022-09-12T10:37:56;101580.75;;;26.02;46.00
71735;BME280;59577;52.122;5.406;2022-09-12T10:40:30;101576.03;;;25.44;48.31
71735;BME280;59577;52.122;5.406;2022-09-12T10:43:01;101576.56;;;25.22;49.28
71735;BME280;59577;52.122;5.406;2022-09-12T10:48:01;101575.13;;;24.85;49.84
71735;BME280;59577;52.122;5.406;2022-09-12T10:50:40;101565.50;;;24.89;50.40
71735;BME280;59577;52.122;5.406;2022-09-12T10:53:20;101554.63;;;24.99;49.72
71735;BME280;59577;52.122;5.406;2022-09-12T11:07:09;101550.69;;;26.00;47.81
71735;BME280;59577;52.122;5.406;2022-09-12T11:09:57;101547.47;;;26.40;47.69
71735;BME280;59577;52.122;5.406;2022-09-12T11:12:51;101547.38;;;26.57;46.99
71735;BME280;59577;52.122;5.406;2022-09-12T11:18:00;101549.94;;;26.64;45.98
71735;BME280;59577;52.122;5.406;2022-09-12T11:21:00;101551.59;;;26.23;45.45
71735;BME280;59577;52.122;5.406;2022-09-12T11:34:27;101540.38;;;26.52;44.78
71735;BME280;59577;52.122;5.406;2022-09-12T11:37:14;101541.59;;;26.77;44.70
71735;BME280;59577;52.122;5.406;2022-09-12T11:39:50;101538.34;;;26.91;44.42
71735;BME280;59577;52.122;5.406;2022-09-12T11:42:25;101538.78;;;26.90;45.82
71735;BME280;59577;52.122;5.406;2022-09-12T11:45:06;101532.22;;;26.83;43.33
71735;BME280;59577;52.122;5.406;2022-09-12T11:47:38;101533.41;;;26.95;44.39
71735;BME280;59577;52.122;5.406;2022-09-12T11:50:18;101529.03;;;26.59;43.45
71735;BME280;59577;52.122;5.406;2022-09-12T11:52:45;101533.16;;;26.42;45.76
71735;BME280;59577;52.122;5.406;2022-09-12T11:55:17;101537.50;;;26.43;45.24
71735;BME280;59577;52.122;5.406;2022-09-12T11:57:55;101533.72;;;26.24;46.72
71735;BME280;59577;52.122;5.406;2022-09-12T12:00:34;101524.94;;;26.13;45.73
71735;BME280;59577;52.122;5.406;2022-09-12T12:08:25;101518.38;;;25.39;45.82
71735;BME280;59577;52.122;5.406;2022-09-12T12:10:56;101517.81;;;25.44;48.04
71735;BME280;59577;52.122;5.406;2022-09-12T12:16:22;101510.50;;;25.50;47.06
71735;BME280;59577;52.122;5.406;2022-09-12T12:19:01;101509.41;;;25.47;48.62
71735;BME280;59577;52.122;5.406;2022-09-12T12:21:43;101502.78;;;25.70;47.80
71735;BME280;59577;52.122;5.406;2022-09-12T12:24:19;101509.47;;;25.73;46.89
71735;BME280;59577;52.122;5.406;2022-09-12T12:34:37;101506.22;;;25.75;46.57
71735;BME280;59577;52.122;5.406;2022-09-12T12:44:59;101491.25;;;25.72;46.26
71735;BME280;59577;52.122;5.406;2022-09-12T12:47:26;101487.72;;;25.71;44.60
71735;BME280;59577;52.122;5.406;2022-09-12T12:49:57;101488.16;;;25.83;46.60
71735;BME280;59577;52.122;5.406;2022-09-12T12:52:30;101485.34;;;25.99;45.07
71735;BME280;59577;52.122;5.406;2022-09-12T12:55:02;101477.06;;;25.83;44.54
71735;BME280;59577;52.122;5.406;2022-09-12T12:57:50;101465.66;;;25.81;44.83
71735;BME280;59577;52.122;5.406;2022-09-12T13:05:46;101464.06;;;25.54;45.20
71735;BME280;59577;52.122;5.406;2022-09-12T13:10:52;101458.66;;;25.76;45.33
71735;BME280;59577;52.122;5.406;2022-09-12T13:13:48;101456.13;;;25.82;44.96
71735;BME280;59577;52.122;5.406;2022-09-12T13:16:28;101449.13;;;25.90;45.78
71735;BME280;59577;52.122;5.406;2022-09-12T13:18:56;101451.56;;;25.88;43.74
71735;BME280;59577;52.122;5.406;2022-09-12T13:21:26;101442.44;;;25.75;44.34
71735;BME280;59577;52.122;5.406;2022-09-12T13:24:05;101426.72;;;25.71;44.84
71735;BME280;59577;52.122;5.406;2022-09-12T13:26:43;101429.38;;;25.75;44.70
71735;BME280;59577;52.122;5.406;2022-09-12T13:29:18;101428.03;;;25.80;45.78
71735;BME280;59577;52.122;5.406;2022-09-12T13:31:47;101418.06;;;25.82;44.94
71735;BME280;59577;52.122;5.406;2022-09-12T13:34:39;101422.38;;;25.70;44.61
71735;BME280;59577;52.122;5.406;2022-09-12T13:37:24;101424.03;;;25.55;44.60
71735;BME280;59577;52.122;5.406;2022-09-12T13:40:27;101422.78;;;25.43;45.58
71735;BME280;59577;52.122;5.406;2022-09-12T13:45:36;101412.41;;;25.18;45.54
71735;BME280;59577;52.122;5.406;2022-09-12T13:48:05;101417.41;;;25.23;46.34
71735;BME280;59577;52.122;5.406;2022-09-12T13:50:39;101413.59;;;25.33;45.81
71735;BME280;59577;52.122;5.406;2022-09-12T13:53:13;101409.28;;;25.45;45.86
71735;BME280;59577;52.122;5.406;2022-09-12T13:55:47;101421.56;;;25.31;46.23
71735;BME280;59577;52.122;5.406;2022-09-12T13:58:29;101411.47;;;25.38;46.00
71735;BME280;59577;52.122;5.406;2022-09-12T14:03:47;101404.97;;;25.70;46.47
71735;BME280;59577;52.122;5.406;2022-09-12T14:06:51;101396.53;;;25.61;45.04
71735;BME280;59577;52.122;5.406;2022-09-12T14:09:23;101402.00;;;25.64;44.97
71735;BME280;59577;52.122;5.406;2022-09-12T14:11:51;101405.97;;;25.63;45.18
71735;BME280;59577;52.122;5.406;2022-09-12T14:16:53;101397.88;;;25.56;44.34
71735;BME280;59577;52.122;5.406;2022-09-12T14:19:22;101387.34;;;25.51;44.35
71735;BME280;59577;52.122;5.406;2022-09-12T14:21:52;101393.53;;;25.55;45.45
71735;BME280;59577;52.122;5.406;2022-09-12T14:24:19;101394.66;;;25.58;44.80
71735;BME280;59577;52.122;5.406;2022-09-12T14:26:53;101384.97;;;25.37;44.34
71735;BME280;59577;52.122;5.406;2022-09-12T14:29:22;101382.38;;;25.17;45.11
71735;BME280;59577;52.122;5.406;2022-09-12T14:32:01;101365.53;;;25.11;46.34
71735;BME280;59577;52.122;5.406;2022-09-12T14:34:28;101362.75;;;25.24;45.86
71735;BME280;59577;52.122;5.406;2022-09-12T14:36:55;101361.38;;;25.32;46.58
71735;BME280;59577;52.122;5.406;2022-09-12T14:42:05;101357.94;;;25.41;45.65
71735;BME280;59577;52.122;5.406;2022-09-12T14:44:35;101353.06;;;25.32;44.72
71735;BME280;59577;52.122;5.406;2022-09-12T14:47:21;101341.34;;;25.11;45.37
71735;BME280;59577;52.122;5.406;2022-09-12T14:49:50;101352.78;;;25.13;45.27
71735;BME280;59577;52.122;5.406;2022-09-12T14:52:31;101350.72;;;25.30;46.05
71735;BME280;59577;52.122;5.406;2022-09-12T15:00:04;101341.25;;;25.15;46.14
71735;BME280;59577;52.122;5.406;2022-09-12T15:02:32;101338.81;;;25.17;47.12
71735;BME280;59577;52.122;5.406;2022-09-12T15:07:34;101334.16;;;25.14;47.55
71735;BME280;59577;52.122;5.406;2022-09-12T15:10:25;101339.47;;;25.08;46.59
71735;BME280;59577;52.122;5.406;2022-09-12T15:15:35;101342.31;;;24.92;46.87
71735;BME280;59577;52.122;5.406;2022-09-12T15:18:02;101346.50;;;24.84;46.31
71735;BME280;59577;52.122;5.406;2022-09-12T15:20:33;101347.03;;;24.78;46.67
71735;BME280;59577;52.122;5.406;2022-09-12T15:23:01;101337.72;;;24.72;47.04
71735;BME280;59577;52.122;5.406;2022-09-12T15:25:27;101335.72;;;24.73;47.13
71735;BME280;59577;52.122;5.406;2022-09-12T15:27:55;101333.63;;;24.77;47.00
71735;BME280;59577;52.122;5.406;2022-09-12T15:30:21;101328.00;;;24.81;47.99
71735;BME280;59577;52.122;5.406;2022-09-12T15:32:48;101336.94;;;24.72;47.63
71735;BME280;59577;52.122;5.406;2022-09-12T15:35:21;101324.66;;;24.73;47.69